Time;durP1;ratioP1;P1;durP2;ratioP2;P2;SDS_P1;SDS_P2;PMS_P1;PMS_P2;Temp;Humidity;BMP_temperature;BMP_pressure;BME280_temperature;BME280_humidity;BME280_pressure;Samples;Min_cycle;Max_cycle;Signal;HPM_P1;HPM_P2
2023/06/18 00:01:21;;;;;;;25.80;10.70;;;;;;;14.74;80.48;100050.34;110139;1273;22308;-61
2023/06/18 00:03:52;;;;;;;23.60;10.00;;;;;;;14.74;80.63;100055.71;110072;1277;22265;-61
2023/06/18 00:06:25;;;;;;;29.10;9.90;;;;;;;14.74;80.83;100055.20;110054;1272;22457;-64
2023/06/18 00:08:57;;;;;;;28.10;11.10;;;;;;;14.75;80.90;100048.25;110066;1273;23076;-61
2023/06/18 00:11:28;;;;;;;26.60;10.10;;;;;;;14.75;81.20;100051.27;110054;1274;22257;-63
2023/06/18 00:13:59;;;;;;;27.80;10.00;;;;;;;14.75;81.13;100053.35;110105;1271;22165;-62
2023/06/18 00:16:30;;;;;;;29.70;11.00;;;;;;;14.75;81.27;100049.58;110124;1273;22207;-62
2023/06/18 00:19:01;;;;;;;27.00;10.70;;;;;;;14.75;81.39;100042.73;110125;1273;22277;-61
2023/06/18 00:21:31;;;;;;;28.70;11.20;;;;;;;14.74;81.46;100042.33;110129;1271;22469;-62
2023/06/18 00:24:02;;;;;;;30.90;11.40;;;;;;;14.75;81.39;100042.13;110171;1273;22184;-61
2023/06/18 00:26:33;;;;;;;26.60;10.60;;;;;;;14.75;81.34;100042.63;110108;1275;22614;-61
2023/06/18 00:29:04;;;;;;;25.40;11.30;;;;;;;14.75;81.42;100042.12;110157;1274;22733;-62
2023/06/18 00:31:36;;;;;;;28.10;10.90;;;;;;;14.75;81.41;100047.68;110107;1273;22318;-62
2023/06/18 00:34:06;;;;;;;31.90;11.90;;;;;;;14.73;81.51;100051.42;110159;1276;22188;-62
2023/06/18 00:36:38;;;;;;;25.60;11.50;;;;;;;14.71;81.74;100057.59;110156;1273;22451;-62
2023/06/18 00:39:09;;;;;;;30.00;12.90;;;;;;;14.68;81.90;100059.44;110144;1273;22296;-63
2023/06/18 00:41:40;;;;;;;35.40;11.50;;;;;;;14.65;82.02;100059.19;110123;1263;22329;-62
2023/06/18 00:44:11;;;;;;;36.50;12.30;;;;;;;14.62;82.19;100058.21;110143;1263;22297;-61
2023/06/18 00:46:46;;;;;;;25.70;12.10;;;;;;;14.64;82.14;100061.17;110131;1278;22342;-61
2023/06/18 00:49:18;;;;;;;33.50;11.80;;;;;;;14.65;82.27;100059.48;110098;1273;22230;-62
2023/06/18 00:51:52;;;;;;;25.90;11.40;;;;;;;14.66;82.28;100058.36;110168;1273;22822;-62
2023/06/18 00:54:25;;;;;;;26.30;10.80;;;;;;;14.65;82.15;100053.77;110189;1270;22978;-63
2023/06/18 00:56:59;;;;;;;24.60;11.10;;;;;;;14.64;82.32;100057.30;110085;1276;22885;-62
2023/06/18 00:59:32;;;;;;;33.50;12.80;;;;;;;14.61;82.38;100055.71;110006;1267;22430;-63
2023/06/18 01:02:03;;;;;;;25.80;11.40;;;;;;;14.58;82.42;100054.95;110136;1278;22200;-62
2023/06/18 01:04:36;;;;;;;26.80;11.90;;;;;;;14.55;82.58;100051.17;110113;1272;23293;-62
2023/06/18 01:07:13;;;;;;;27.90;10.50;;;;;;;14.54;82.69;100049.23;110159;1272;22227;-62
2023/06/18 01:09:44;;;;;;;31.40;12.20;;;;;;;14.53;82.68;100050.61;110165;1273;22312;-61
2023/06/18 01:12:15;;;;;;;26.80;10.80;;;;;;;14.51;82.67;100052.44;110157;1273;22275;-62
2023/06/18 01:14:50;;;;;;;28.70;10.80;;;;;;;14.50;82.78;100052.59;110125;1264;22935;-61
2023/06/18 01:17:22;;;;;;;30.50;12.00;;;;;;;14.49;82.86;100055.34;110032;1263;22223;-63
2023/06/18 01:20:00;;;;;;;29.70;12.40;;;;;;;14.46;82.87;100052.44;110122;1278;22154;-64
2023/06/18 01:22:37;;;;;;;30.00;11.40;;;;;;;14.44;82.80;100055.30;110123;1276;23095;-62
2023/06/18 01:25:10;;;;;;;27.50;11.50;;;;;;;14.42;82.91;100057.29;110135;1255;22271;-62
2023/06/18 01:27:43;;;;;;;27.00;10.90;;;;;;;14.40;82.96;100057.39;110186;1263;22401;-61
2023/06/18 01:30:15;;;;;;;24.30;9.80;;;;;;;14.40;83.06;100058.62;110107;1273;22157;-62
2023/06/18 01:32:46;;;;;;;30.40;11.70;;;;;;;14.38;83.06;100058.83;110115;1273;22251;-62
2023/06/18 01:35:17;;;;;;;28.10;11.00;;;;;;;14.36;83.29;100059.39;110136;1272;22370;-61
2023/06/18 01:38:18;;;;;;;26.60;11.20;;;;;;;14.32;83.25;100057.04;110133;1278;22371;-62
2023/06/18 01:40:53;;;;;;;29.40;11.80;;;;;;;14.30;83.46;100060.45;110154;1278;23269;-61
2023/06/18 01:43:35;;;;;;;26.70;11.00;;;;;;;14.26;83.68;100061.90;110104;1273;22256;-63
2023/06/18 01:46:08;;;;;;;29.30;11.10;;;;;;;14.23;83.72;100067.77;110102;1264;22188;-60
2023/06/18 01:48:42;;;;;;;25.60;9.60;;;;;;;14.20;83.79;100070.88;110153;1271;22162;-61
2023/06/18 01:51:16;;;;;;;28.20;11.30;;;;;;;14.16;83.72;100070.40;110155;1274;22155;-61
2023/06/18 01:53:50;;;;;;;26.30;11.70;;;;;;;14.12;83.90;100072.85;110121;1274;22158;-62
2023/06/18 01:56:22;;;;;;;28.20;10.90;;;;;;;14.09;83.86;100072.48;110119;1273;22254;-62
2023/06/18 01:58:53;;;;;;;29.40;11.80;;;;;;;14.06;83.83;100072.23;110123;1273;22176;-62
2023/06/18 02:01:26;;;;;;;28.10;10.90;;;;;;;14.03;83.86;100083.65;110109;1278;22365;-63
2023/06/18 02:03:57;;;;;;;27.30;10.80;;;;;;;14.02;84.02;100081.41;110107;1264;22206;-62
2023/06/18 02:06:28;;;;;;;28.50;11.30;;;;;;;14.01;84.21;100079.56;110113;1265;22171;-62
2023/06/18 02:08:59;;;;;;;24.20;10.60;;;;;;;13.99;84.32;100079.40;110058;1271;22334;-62
2023/06/18 02:11:30;;;;;;;28.80;11.20;;;;;;;13.96;84.31;100080.00;110052;1268;22208;-62
2023/06/18 02:14:01;;;;;;;26.60;11.70;;;;;;;13.94;84.44;100080.52;110084;1279;22209;-62
2023/06/18 02:16:31;;;;;;;27.20;11.70;;;;;;;13.93;84.58;100080.35;110123;1268;22344;-62
2023/06/18 02:19:02;;;;;;;30.60;12.60;;;;;;;13.91;84.52;100082.84;110162;1272;22373;-62
2023/06/18 02:21:33;;;;;;;30.40;12.80;;;;;;;13.88;84.62;100080.59;110130;1271;22345;-62
2023/06/18 02:24:05;;;;;;;34.10;12.10;;;;;;;13.86;84.68;100083.55;110142;1273;22172;-62
2023/06/18 02:26:36;;;;;;;23.40;10.70;;;;;;;13.84;84.70;100079.20;110117;1264;22155;-62
2023/06/18 02:29:07;;;;;;;29.30;11.60;;;;;;;13.81;84.80;100082.62;110130;1272;22347;-62
2023/06/18 02:31:38;;;;;;;28.60;11.30;;;;;;;13.79;84.78;100083.63;110139;1273;22368;-62
2023/06/18 02:34:10;;;;;;;29.00;10.80;;;;;;;13.77;84.89;100080.96;110136;1273;22320;-62
2023/06/18 02:36:40;;;;;;;23.10;9.80;;;;;;;13.74;84.57;100088.71;110167;1270;22334;-62
2023/06/18 02:39:11;;;;;;;26.00;10.70;;;;;;;13.70;84.71;100090.99;110142;1264;22209;-63
2023/06/18 02:41:42;;;;;;;25.50;10.00;;;;;;;13.66;84.59;100087.66;110123;1268;22337;-62
2023/06/18 02:44:13;;;;;;;28.10;11.40;;;;;;;13.63;84.53;100090.20;110121;1271;22276;-62
2023/06/18 02:46:44;;;;;;;24.30;9.20;;;;;;;13.59;84.52;100096.76;110107;1272;22267;-63
2023/06/18 02:49:15;;;;;;;26.60;10.50;;;;;;;13.55;84.63;100093.83;110154;1273;22857;-62
2023/06/18 02:51:46;;;;;;;21.50;9.10;;;;;;;13.51;84.57;100099.42;110156;1274;22195;-63
2023/06/18 02:54:16;;;;;;;25.10;9.70;;;;;;;13.47;84.65;100101.50;110177;1273;22928;-62
2023/06/18 02:56:47;;;;;;;21.80;10.00;;;;;;;13.44;84.62;100102.09;110110;1269;22308;-62
2023/06/18 02:59:18;;;;;;;22.70;10.20;;;;;;;13.40;84.59;100104.52;110114;1272;22687;-62
2023/06/18 03:01:50;;;;;;;25.00;11.00;;;;;;;13.38;84.87;100103.27;110144;1268;22427;-62
2023/06/18 03:04:21;;;;;;;29.40;10.50;;;;;;;13.36;85.09;100103.94;110144;1268;22171;-63
2023/06/18 03:06:52;;;;;;;21.80;10.60;;;;;;;13.35;85.34;100104.89;110135;1269;22183;-62
2023/06/18 03:09:23;;;;;;;29.30;10.10;;;;;;;13.34;85.57;100096.73;110134;1269;22209;-62
2023/06/18 03:11:54;;;;;;;22.90;10.60;;;;;;;13.33;85.62;100095.40;110108;1274;22208;-62
2023/06/18 03:14:25;;;;;;;24.60;11.10;;;;;;;13.32;85.72;100096.93;110111;1272;22153;-62
2023/06/18 03:16:56;;;;;;;25.40;10.50;;;;;;;13.32;85.89;100097.75;110113;1278;22944;-62
2023/06/18 03:19:28;;;;;;;26.30;11.40;;;;;;;13.32;86.03;100100.14;110115;1272;22170;-62
2023/06/18 03:21:59;;;;;;;33.30;12.70;;;;;;;13.32;86.32;100097.90;110139;1277;22287;-62
2023/06/18 03:24:30;;;;;;;29.10;11.20;;;;;;;13.34;86.51;100104.54;110203;1273;22205;-62
2023/06/18 03:27:01;;;;;;;27.40;11.60;;;;;;;13.34;86.50;100107.20;110121;1268;22290;-62
2023/06/18 03:29:34;;;;;;;22.70;11.40;;;;;;;13.35;86.69;100107.15;110096;1271;22459;-62
2023/06/18 03:32:07;;;;;;;27.00;11.80;;;;;;;13.38;87.00;100107.30;110141;1267;22291;-62
2023/06/18 03:34:42;;;;;;;24.40;11.60;;;;;;;13.39;87.17;100111.59;110146;1272;22189;-62
2023/06/18 03:37:13;;;;;;;30.40;12.30;;;;;;;13.40;87.38;100118.63;110046;1269;22272;-62
2023/06/18 03:39:43;;;;;;;24.20;12.30;;;;;;;13.43;87.50;100115.61;110152;1267;22147;-63
2023/06/18 03:42:15;;;;;;;29.90;13.10;;;;;;;13.47;87.67;100116.70;110134;1276;22144;-61
2023/06/18 03:44:45;;;;;;;27.90;12.60;;;;;;;13.51;87.66;100119.12;110130;1273;22234;-62
2023/06/18 03:47:16;;;;;;;28.40;13.20;;;;;;;13.56;88.09;100121.58;110113;1271;22304;-62
2023/06/18 03:49:48;;;;;;;26.40;12.30;;;;;;;13.60;87.87;100119.86;110200;1271;22477;-63
2023/06/18 03:52:18;;;;;;;26.20;12.80;;;;;;;13.65;87.83;100121.02;110196;1276;22209;-62
2023/06/18 03:54:49;;;;;;;33.20;14.80;;;;;;;13.69;88.12;100126.23;110180;1273;23293;-62
2023/06/18 03:57:20;;;;;;;28.50;12.60;;;;;;;13.73;87.92;100124.21;110131;1273;22230;-62
2023/06/18 03:59:51;;;;;;;28.50;13.10;;;;;;;13.77;88.14;100127.13;110079;1269;23015;-62
2023/06/18 04:02:22;;;;;;;29.60;14.90;;;;;;;13.81;88.34;100128.27;110112;1265;22180;-63
2023/06/18 04:04:53;;;;;;;30.30;13.30;;;;;;;13.85;88.54;100127.52;110121;1278;23010;-62
2023/06/18 04:07:24;;;;;;;30.90;13.40;;;;;;;13.88;88.55;100129.27;110108;1273;22181;-63
2023/06/18 04:09:55;;;;;;;30.40;12.60;;;;;;;13.92;88.60;100127.13;110118;1268;22349;-62
2023/06/18 04:12:27;;;;;;;30.10;12.50;;;;;;;13.93;88.27;100131.84;110079;1268;22209;-62
2023/06/18 04:14:57;;;;;;;26.80;11.70;;;;;;;13.94;88.57;100130.41;110076;1269;23470;-61
2023/06/18 04:17:29;;;;;;;27.40;12.20;;;;;;;13.94;88.39;100135.21;110077;1263;22225;-62
2023/06/18 04:20:00;;;;;;;24.60;12.70;;;;;;;13.95;88.28;100132.61;110114;1263;22261;-62
2023/06/18 04:22:31;;;;;;;29.70;12.60;;;;;;;13.95;88.28;100136.33;110059;1274;22364;-62
2023/06/18 04:25:02;;;;;;;28.30;11.70;;;;;;;13.95;88.46;100137.40;110118;1264;22252;-62
2023/06/18 04:27:33;;;;;;;31.00;13.90;;;;;;;13.96;88.53;100143.70;110174;1272;22912;-62
2023/06/18 04:30:04;;;;;;;30.60;13.40;;;;;;;13.98;88.64;100139.10;110118;1263;22184;-62
2023/06/18 04:32:35;;;;;;;31.00;13.40;;;;;;;14.03;88.65;100141.21;110122;1264;22421;-62
2023/06/18 04:35:07;;;;;;;37.20;13.00;;;;;;;14.08;88.69;100139.54;110156;1271;22209;-63
2023/06/18 04:37:38;;;;;;;27.00;13.00;;;;;;;14.13;88.57;100139.86;110140;1278;22146;-62
2023/06/18 04:40:11;;;;;;;32.00;11.90;;;;;;;14.20;88.77;100141.06;110142;1264;22295;-62
2023/06/18 04:42:42;;;;;;;26.20;11.40;;;;;;;14.26;88.86;100138.54;110133;1273;22277;-62
2023/06/18 04:45:13;;;;;;;28.90;12.70;;;;;;;14.32;88.94;100135.50;110122;1271;22273;-62
2023/06/18 04:47:44;;;;;;;28.90;13.80;;;;;;;14.38;89.10;100127.65;110119;1273;22292;-62
2023/06/18 04:50:15;;;;;;;30.20;11.80;;;;;;;14.46;89.29;100132.83;110122;1272;22993;-62
2023/06/18 04:52:46;;;;;;;25.60;11.90;;;;;;;14.54;89.40;100130.18;110152;1278;22189;-63
2023/06/18 04:55:17;;;;;;;26.90;11.40;;;;;;;14.62;89.63;100128.55;110114;1272;22199;-63
2023/06/18 04:57:48;;;;;;;26.10;12.30;;;;;;;14.71;89.41;100125.43;110156;1271;22298;-63
2023/06/18 05:00:20;;;;;;;28.60;12.00;;;;;;;14.79;89.42;100126.21;110112;1268;22227;-62
2023/06/18 05:02:51;;;;;;;24.30;11.40;;;;;;;14.85;89.24;100129.08;110059;1268;22228;-63
2023/06/18 05:05:23;;;;;;;32.00;11.90;;;;;;;14.90;89.13;100132.19;110053;1264;23437;-63
2023/06/18 05:07:54;;;;;;;26.40;11.20;;;;;;;14.98;89.59;100136.79;110096;1279;22240;-62
2023/06/18 05:10:25;;;;;;;24.30;10.60;;;;;;;15.08;89.69;100138.57;110133;1273;23089;-62
2023/06/18 05:12:56;;;;;;;25.60;12.20;;;;;;;15.19;89.72;100139.33;110094;1271;22253;-62
2023/06/18 05:15:27;;;;;;;24.30;10.40;;;;;;;15.27;89.46;100150.05;110153;1273;22285;-63
2023/06/18 05:17:58;;;;;;;23.60;10.90;;;;;;;15.33;89.22;100144.89;110142;1268;22199;-62
2023/06/18 05:20:29;;;;;;;26.40;11.50;;;;;;;15.38;89.14;100145.94;110122;1272;22763;-64
2023/06/18 05:23:00;;;;;;;21.40;10.70;;;;;;;15.45;89.07;100145.55;110157;1278;22197;-63
2023/06/18 05:25:33;;;;;;;22.60;11.20;;;;;;;15.52;88.72;100152.23;110153;1271;22323;-62
2023/06/18 05:28:04;;;;;;;22.50;10.60;;;;;;;15.58;88.62;100158.19;110118;1276;22158;-62
2023/06/18 05:30:35;;;;;;;28.20;11.80;;;;;;;15.63;88.41;100160.39;110160;1273;22229;-62
2023/06/18 05:33:06;;;;;;;22.30;10.90;;;;;;;15.67;88.22;100162.37;110112;1267;23007;-63
2023/06/18 05:35:37;;;;;;;26.50;11.70;;;;;;;15.71;88.00;100163.80;110115;1272;22846;-62
2023/06/18 05:38:08;;;;;;;23.50;10.00;;;;;;;15.74;87.64;100167.71;110150;1271;22393;-62
2023/06/18 05:40:39;;;;;;;22.80;11.20;;;;;;;15.75;87.60;100167.41;110143;1278;22169;-62
2023/06/18 05:43:10;;;;;;;24.10;11.30;;;;;;;15.77;87.66;100170.46;110145;1273;22165;-62
2023/06/18 05:45:41;;;;;;;23.60;11.00;;;;;;;15.81;87.64;100170.96;110167;1264;22334;-63
2023/06/18 05:48:14;;;;;;;23.30;10.80;;;;;;;15.82;87.52;100174.20;110178;1273;22237;-63
2023/06/18 05:50:45;;;;;;;21.50;11.10;;;;;;;15.80;87.43;100179.16;110087;1264;22507;-62
2023/06/18 05:53:16;;;;;;;21.70;10.50;;;;;;;15.81;87.57;100178.44;110166;1271;23356;-62
2023/06/18 05:55:47;;;;;;;21.00;10.70;;;;;;;15.82;87.36;100179.52;110161;1271;22240;-62
2023/06/18 05:58:17;;;;;;;23.70;12.40;;;;;;;15.82;87.43;100178.60;110127;1273;22232;-62
2023/06/18 06:00:48;;;;;;;22.10;11.00;;;;;;;15.83;87.56;100179.61;110154;1272;23837;-62
2023/06/18 06:03:19;;;;;;;24.20;10.90;;;;;;;15.87;87.59;100175.41;110108;1272;23271;-62
2023/06/18 06:05:50;;;;;;;26.20;11.20;;;;;;;15.91;87.71;100181.27;110071;1264;22888;-62
2023/06/18 06:08:21;;;;;;;24.30;10.80;;;;;;;15.94;87.08;100188.89;110073;1265;23214;-62
2023/06/18 06:10:53;;;;;;;21.40;11.20;;;;;;;15.96;87.01;100197.59;110044;1279;22869;-62
2023/06/18 06:13:24;;;;;;;21.80;11.20;;;;;;;15.97;87.08;100197.73;110079;1276;22233;-63
2023/06/18 06:15:55;;;;;;;24.70;11.90;;;;;;;16.00;87.18;100201.27;110129;1274;22145;-63
2023/06/18 06:18:25;;;;;;;24.20;12.20;;;;;;;16.03;87.03;100200.48;110135;1268;22303;-62
2023/06/18 06:20:56;;;;;;;24.50;11.10;;;;;;;16.07;86.64;100204.09;110099;1271;22243;-62
2023/06/18 06:23:27;;;;;;;22.90;11.30;;;;;;;16.12;86.70;100203.92;110147;1263;23383;-62
2023/06/18 06:25:58;;;;;;;25.50;12.90;;;;;;;16.16;86.90;100203.03;110134;1278;23171;-62
2023/06/18 06:28:30;;;;;;;26.40;12.00;;;;;;;16.20;86.91;100202.41;110120;1268;22228;-63
2023/06/18 06:31:01;;;;;;;23.40;10.90;;;;;;;16.25;86.56;100203.81;110127;1267;22182;-62
2023/06/18 06:33:32;;;;;;;23.70;11.30;;;;;;;16.26;86.36;100205.15;110125;1270;22309;-62
2023/06/18 06:36:03;;;;;;;25.50;11.60;;;;;;;16.27;86.30;100207.28;110136;1269;23067;-63
2023/06/18 06:38:34;;;;;;;27.90;13.00;;;;;;;16.28;86.48;100210.56;110105;1271;22340;-62
2023/06/18 06:41:05;;;;;;;24.50;11.40;;;;;;;16.30;86.30;100212.71;110125;1272;22271;-62
2023/06/18 06:43:36;;;;;;;24.00;11.40;;;;;;;16.25;86.06;100213.55;110112;1271;22153;-63
2023/06/18 06:46:07;;;;;;;23.20;11.40;;;;;;;16.22;85.91;100212.33;106024;1276;5429459;-63
2023/06/18 06:48:39;;;;;;;23.30;11.80;;;;;;;16.22;85.92;100214.44;110166;1273;22170;-62
2023/06/18 06:51:10;;;;;;;26.30;12.00;;;;;;;16.26;86.11;100216.63;110156;1273;22217;-62
2023/06/18 06:53:41;;;;;;;23.10;11.20;;;;;;;16.29;86.00;100217.02;110099;1276;22351;-62
2023/06/18 06:56:11;;;;;;;19.90;11.00;;;;;;;16.39;86.24;100212.66;110139;1271;22293;-62
2023/06/18 06:58:43;;;;;;;25.90;12.20;;;;;;;16.52;86.29;100212.67;110165;1278;22212;-63
2023/06/18 07:01:14;;;;;;;22.50;11.30;;;;;;;16.63;86.03;100212.15;110086;1274;22188;-62
2023/06/18 07:03:45;;;;;;;24.70;11.30;;;;;;;16.75;85.85;100212.52;110079;1273;23012;-62
2023/06/18 07:06:16;;;;;;;24.10;11.70;;;;;;;16.89;86.01;100209.46;110108;1264;22440;-62
2023/06/18 07:08:46;;;;;;;28.10;12.60;;;;;;;16.99;85.63;100207.35;110100;1264;22208;-62
2023/06/18 07:11:17;;;;;;;31.20;18.00;;;;;;;17.10;85.59;100205.30;110141;1273;22219;-63
2023/06/18 07:13:48;;;;;;;23.30;12.10;;;;;;;17.24;85.54;100199.95;110157;1278;22206;-62
2023/06/18 07:16:19;;;;;;;22.50;11.80;;;;;;;17.35;85.27;100202.02;110126;1274;22214;-63
2023/06/18 07:18:50;;;;;;;23.90;10.90;;;;;;;17.45;84.88;100205.63;110090;1273;22989;-62
2023/06/18 07:21:21;;;;;;;23.90;11.60;;;;;;;17.57;84.99;100206.45;110126;1269;22680;-62
2023/06/18 07:23:52;;;;;;;24.10;11.40;;;;;;;17.69;84.68;100203.52;110087;1273;22393;-63
2023/06/18 07:26:23;;;;;;;22.60;10.00;;;;;;;17.81;84.67;100202.51;110100;1264;22245;-62
2023/06/18 07:28:55;;;;;;;23.10;10.60;;;;;;;17.90;83.63;100203.43;110086;1274;23073;-63
2023/06/18 07:31:26;;;;;;;21.90;9.80;;;;;;;17.96;83.61;100204.91;110064;1264;23041;-62
2023/06/18 07:33:57;;;;;;;21.50;10.30;;;;;;;18.04;83.77;100208.75;110101;1268;22207;-62
2023/06/18 07:36:28;;;;;;;25.90;12.10;;;;;;;18.19;83.91;100205.81;110066;1271;22329;-61
2023/06/18 07:38:58;;;;;;;22.90;10.80;;;;;;;18.29;83.23;100206.48;110084;1264;22196;-61
2023/06/18 07:41:29;;;;;;;20.70;9.90;;;;;;;18.41;83.83;100202.25;110069;1271;22336;-61
2023/06/18 07:44:01;;;;;;;22.40;9.50;;;;;;;18.60;83.25;100204.30;110126;1278;23372;-61
2023/06/18 07:46:33;;;;;;;18.00;8.80;;;;;;;18.73;82.41;100201.51;110070;1273;22356;-62
2023/06/18 07:49:04;;;;;;;18.00;8.20;;;;;;;18.80;81.56;100196.30;110070;1273;22276;-61
2023/06/18 07:51:35;;;;;;;20.80;9.70;;;;;;;18.86;81.70;100199.30;110058;1274;23228;-62
2023/06/18 07:54:06;;;;;;;21.50;9.80;;;;;;;19.00;82.11;100197.48;110074;1268;22337;-62
2023/06/18 07:56:37;;;;;;;18.30;7.60;;;;;;;19.12;81.13;100196.15;110092;1273;22149;-62
2023/06/18 07:59:09;;;;;;;28.30;7.90;;;;;;;19.20;80.29;100196.27;110073;1265;22337;-62
2023/06/18 08:01:40;;;;;;;17.70;7.50;;;;;;;19.26;79.59;100197.19;110081;1271;22212;-62
2023/06/18 08:04:11;;;;;;;16.70;7.30;;;;;;;19.30;79.83;100196.01;110073;1264;22157;-60
2023/06/18 08:06:43;;;;;;;17.70;6.20;;;;;;;19.37;79.21;100200.60;110101;1274;22345;-61
2023/06/18 08:09:14;;;;;;;15.60;6.60;;;;;;;19.47;78.86;100203.00;110066;1273;23213;-61
2023/06/18 08:11:45;;;;;;;14.60;6.70;;;;;;;19.55;78.48;100203.21;110052;1270;22216;-61
2023/06/18 08:14:16;;;;;;;11.80;5.50;;;;;;;19.66;78.24;100202.10;110053;1272;22186;-61
2023/06/18 08:16:47;;;;;;;12.80;4.80;;;;;;;19.74;77.12;100205.13;110064;1271;23276;-61
2023/06/18 08:19:18;;;;;;;13.30;5.10;;;;;;;19.80;76.87;100206.91;110048;1272;22298;-61
2023/06/18 08:21:49;;;;;;;8.60;3.00;;;;;;;19.93;75.50;100214.75;110062;1264;22190;-60
2023/06/18 08:24:20;;;;;;;8.80;3.00;;;;;;;20.02;74.06;100212.88;110095;1273;22246;-61
2023/06/18 08:26:51;;;;;;;10.30;3.80;;;;;;;20.09;74.18;100206.20;110046;1274;22399;-60
2023/06/18 08:29:23;;;;;;;7.70;2.70;;;;;;;20.19;72.99;100207.38;110028;1271;22293;-61
2023/06/18 08:31:53;;;;;;;8.00;3.10;;;;;;;20.26;72.62;100203.25;110113;1279;22445;-61
2023/06/18 08:34:24;;;;;;;8.90;2.90;;;;;;;20.34;72.48;100201.22;110081;1274;22264;-61
2023/06/18 08:36:55;;;;;;;10.10;3.30;;;;;;;20.44;72.39;100197.98;109998;1273;23229;-61
2023/06/18 08:39:27;;;;;;;11.70;3.90;;;;;;;20.55;71.68;100195.81;109951;1267;22232;-61
2023/06/18 08:42:00;;;;;;;7.00;2.50;;;;;;;20.62;71.30;100193.17;109995;1268;23244;-61
2023/06/18 08:44:34;;;;;;;8.00;3.00;;;;;;;20.73;70.66;100196.02;109992;1265;23178;-61
2023/06/18 08:47:08;;;;;;;7.30;2.50;;;;;;;20.76;69.61;100194.84;109977;1264;22335;-61
2023/06/18 08:49:42;;;;;;;8.40;2.70;;;;;;;20.74;68.96;100194.64;110017;1271;22507;-61
2023/06/18 08:52:17;;;;;;;9.60;3.40;;;;;;;20.70;69.17;100190.92;110011;1274;22345;-61
2023/06/18 08:54:53;;;;;;;9.80;2.80;;;;;;;20.75;69.02;100187.49;110044;1273;22169;-61
2023/06/18 08:57:36;;;;;;;10.60;3.00;;;;;;;20.81;67.35;100184.02;110106;1271;22327;-61
2023/06/18 09:00:12;;;;;;;11.50;4.00;;;;;;;20.85;68.40;100180.04;109929;1276;22218;-61
2023/06/18 09:02:44;;;;;;;8.30;3.20;;;;;;;21.00;68.14;100178.68;110027;1274;22220;-61
2023/06/18 09:05:16;;;;;;;7.70;2.90;;;;;;;21.09;67.50;100180.08;110016;1264;23331;-61
2023/06/18 09:07:48;;;;;;;7.80;3.10;;;;;;;21.15;67.22;100182.89;110037;1279;22239;-61
2023/06/18 09:10:21;;;;;;;6.40;2.20;;;;;;;21.26;67.04;100184.95;110043;1273;22333;-61
2023/06/18 09:12:53;;;;;;;9.10;2.70;;;;;;;21.31;65.70;100181.36;110044;1263;22226;-61
2023/06/18 09:15:25;;;;;;;8.90;2.40;;;;;;;21.34;65.89;100180.92;110043;1271;22169;-62
2023/06/18 09:17:57;;;;;;;7.70;2.70;;;;;;;21.40;65.19;100180.45;110041;1271;22221;-61
2023/06/18 09:20:29;;;;;;;8.20;2.70;;;;;;;21.45;64.99;100176.41;110032;1264;22957;-60
2023/06/18 09:23:10;;;;;;;7.40;2.50;;;;;;;21.48;64.50;100177.34;110047;1274;22333;-61
2023/06/18 09:25:43;;;;;;;9.00;2.20;;;;;;;21.52;63.82;100176.42;109745;1269;22325;-61
2023/06/18 09:28:16;;;;;;;7.20;2.30;;;;;;;21.55;63.53;100176.76;109996;1276;22423;-61
2023/06/18 09:30:53;;;;;;;8.00;2.60;;;;;;;21.53;63.30;100177.30;110005;1265;22521;-61
2023/06/18 09:33:33;;;;;;;6.20;2.50;;;;;;;21.48;62.75;100178.89;110017;1264;22174;-61
2023/06/18 09:36:06;;;;;;;7.40;2.00;;;;;;;21.47;63.02;100174.90;109999;1265;22358;-61
2023/06/18 09:38:40;;;;;;;8.80;2.40;;;;;;;21.58;63.28;100180.63;110060;1273;22354;-61
2023/06/18 09:41:16;;;;;;;6.50;2.20;;;;;;;21.73;62.74;100175.42;110020;1272;23477;-61
2023/06/18 09:43:50;;;;;;;6.50;2.30;;;;;;;21.84;61.80;100178.89;110027;1279;23288;-61
2023/06/18 09:46:26;;;;;;;6.10;1.90;;;;;;;21.86;61.25;100173.33;110028;1271;22203;-61
2023/06/18 09:48:58;;;;;;;6.30;2.30;;;;;;;21.90;60.85;100172.99;110004;1271;22342;-61
2023/06/18 09:51:30;;;;;;;12.40;4.80;;;;;;;21.94;60.83;100172.48;110027;1274;22285;-61
2023/06/18 09:54:01;;;;;;;8.10;2.50;;;;;;;22.01;60.29;100168.16;110042;1268;22205;-61
2023/06/18 09:56:33;;;;;;;7.50;1.90;;;;;;;22.10;60.53;100165.92;110028;1277;22155;-61
2023/06/18 09:59:05;;;;;;;9.00;1.80;;;;;;;22.16;59.02;100167.66;110042;1275;22226;-60
2023/06/18 10:01:50;;;;;;;5.00;2.00;;;;;;;22.17;58.42;100165.66;110043;1274;22326;-60
2023/06/18 10:04:21;;;;;;;4.50;1.70;;;;;;;22.16;57.15;100161.98;110045;1267;22184;-61
2023/06/18 10:06:59;;;;;;;5.50;1.90;;;;;;;22.16;57.10;100157.13;110011;1268;22206;-61
2023/06/18 10:09:37;;;;;;;4.70;1.80;;;;;;;22.16;57.53;100157.05;110021;1274;22333;-61
2023/06/18 10:12:13;;;;;;;8.30;2.60;;;;;;;22.17;56.96;100157.70;110036;1273;22341;-61
2023/06/18 10:14:48;;;;;;;5.50;2.00;;;;;;;22.18;56.58;100150.35;110021;1264;22943;-61
2023/06/18 10:17:59;;;;;;;6.50;1.90;;;;;;;22.15;56.74;100150.17;109843;1265;22338;-60
2023/06/18 10:20:33;;;;;;;6.00;1.80;;;;;;;22.11;56.09;100157.23;109937;1274;22338;-61
2023/06/18 10:23:07;;;;;;;5.60;1.60;;;;;;;22.09;55.80;100154.02;110063;1276;22200;-61
2023/06/18 10:25:40;;;;;;;6.30;2.20;;;;;;;22.11;55.42;100147.56;110051;1278;22355;-61
2023/06/18 10:28:15;;;;;;;7.20;1.50;;;;;;;22.17;55.60;100149.75;110094;1271;22208;-61
2023/06/18 10:30:47;;;;;;;6.20;2.00;;;;;;;22.29;55.82;100150.70;110061;1268;23264;-61
2023/06/18 10:33:20;;;;;;;6.10;1.80;;;;;;;22.45;55.14;100147.77;110097;1268;23039;-61
2023/06/18 10:35:53;;;;;;;5.10;1.40;;;;;;;22.55;54.51;100150.41;110067;1271;23570;-61
2023/06/18 10:38:24;;;;;;;5.80;1.70;;;;;;;22.69;54.46;100148.65;110099;1270;22163;-61
2023/06/18 10:41:11;;;;;;;4.80;1.50;;;;;;;22.82;53.30;100150.28;110083;1279;22199;-61
2023/06/18 10:43:44;;;;;;;6.80;1.90;;;;;;;22.91;53.77;100148.49;110122;1278;22270;-61
2023/06/18 10:46:16;;;;;;;6.30;1.70;;;;;;;23.00;54.54;100145.70;110060;1268;22140;-61
2023/06/18 10:49:15;;;;;;;6.10;1.90;;;;;;;23.07;53.91;100141.94;110042;1264;22242;-61
2023/06/18 10:52:06;;;;;;;7.00;1.70;;;;;;;23.11;52.44;100135.76;110046;1275;22289;-61
2023/06/18 10:54:38;;;;;;;5.40;1.80;;;;;;;23.17;52.62;100136.83;110064;1264;23467;-61
2023/06/18 10:57:13;;;;;;;6.90;1.70;;;;;;;23.26;52.26;100134.20;110068;1264;22409;-61
2023/06/18 10:59:49;;;;;;;6.50;1.60;;;;;;;23.35;51.93;100137.04;110026;1272;22268;-61
2023/06/18 11:02:34;;;;;;;6.50;1.90;;;;;;;23.38;51.22;100138.98;109549;1272;124299;-60
2023/06/18 11:05:06;;;;;;;6.00;1.90;;;;;;;23.36;51.38;100133.65;109687;1271;22141;-61
2023/06/18 11:07:42;;;;;;;5.00;1.70;;;;;;;23.39;50.86;100128.98;110036;1273;22232;-61
2023/06/18 11:10:13;;;;;;;12.10;4.60;;;;;;;23.43;50.95;100127.53;110050;1266;23129;-61
2023/06/18 11:12:50;;;;;;;6.80;2.20;;;;;;;23.46;50.81;100121.53;110051;1267;22386;-61
2023/06/18 11:15:22;;;;;;;5.40;1.70;;;;;;;23.53;50.63;100126.91;110047;1277;22251;-61
2023/06/18 11:17:57;;;;;;;7.60;1.90;;;;;;;23.59;49.85;100122.80;109996;1268;22278;-61
2023/06/18 11:20:31;;;;;;;4.90;1.50;;;;;;;23.63;49.16;100117.48;110014;1274;22185;-61
2023/06/18 11:23:04;;;;;;;5.80;1.50;;;;;;;23.60;49.19;100116.98;110013;1273;22185;-61
2023/06/18 11:25:35;;;;;;;8.40;2.00;;;;;;;23.62;49.55;100115.95;109981;1272;22381;-61
2023/06/18 11:28:08;;;;;;;5.90;1.60;;;;;;;23.73;49.52;100114.45;110031;1271;22205;-61
2023/06/18 11:30:39;;;;;;;5.10;1.70;;;;;;;23.88;49.21;100109.15;110091;1279;22159;-61